createdAt,value
2017-09-18T00:00:46.036Z,9.20
2017-09-18T00:03:27.808Z,9.20
2017-09-18T00:06:03.605Z,9.30
2017-09-18T00:08:38.154Z,9.30
2017-09-18T00:11:16.884Z,9.30
2017-09-18T00:14:05.047Z,9.30
2017-09-18T00:19:32.320Z,9.30
2017-09-18T00:22:07.525Z,9.20
2017-09-18T00:24:51.112Z,9.20
2017-09-18T00:27:28.807Z,9.30
2017-09-18T00:30:03.808Z,9.20
2017-09-18T00:32:40.183Z,9.20
2017-09-18T00:35:16.518Z,9.30
2017-09-18T00:37:58.223Z,9.30
2017-09-18T00:40:39.737Z,9.30
2017-09-18T00:43:13.992Z,9.10
2017-09-18T00:45:54.310Z,9.00
2017-09-18T00:48:31.422Z,8.90
2017-09-18T00:51:06.202Z,8.90
2017-09-18T00:53:43.070Z,9.00
2017-09-18T00:56:24.324Z,9.10
2017-09-18T00:59:00.066Z,9.20
2017-09-18T01:01:39.276Z,9.20
2017-09-18T01:04:15.713Z,9.20
2017-09-18T01:07:05.783Z,9.30
2017-09-18T01:09:48.132Z,9.30
2017-09-18T01:12:24.665Z,9.30
2017-09-18T01:15:00.113Z,9.30
2017-09-18T01:17:42.010Z,9.30
2017-09-18T01:20:21.805Z,9.30
2017-09-18T01:22:59.036Z,9.30
2017-09-18T01:25:40.189Z,9.30
2017-09-18T01:28:17.364Z,9.30
2017-09-18T01:30:52.607Z,9.10
2017-09-18T01:33:35.469Z,9.10
2017-09-18T01:36:10.112Z,9.00
2017-09-18T01:38:45.539Z,9.30
2017-09-18T01:41:21.580Z,9.40
2017-09-18T01:43:55.635Z,9.30
2017-09-18T01:46:32.271Z,9.40
2017-09-18T01:49:10.653Z,9.40
2017-09-18T01:51:46.321Z,9.40
2017-09-18T01:54:23.709Z,9.40
2017-09-18T01:56:58.205Z,9.50
2017-09-18T01:59:37.373Z,9.50
2017-09-18T02:02:13.216Z,9.50
2017-09-18T02:05:00.429Z,9.50
2017-09-18T02:07:39.822Z,9.50
2017-09-18T02:10:15.257Z,9.60
2017-09-18T02:12:52.071Z,9.50
2017-09-18T02:15:28.039Z,9.50
2017-09-18T02:18:05.975Z,9.50
2017-09-18T02:20:43.828Z,9.50
2017-09-18T02:23:21.737Z,9.50
2017-09-18T02:25:56.048Z,9.40
2017-09-18T02:28:31.073Z,9.40
2017-09-18T02:31:12.421Z,9.40
2017-09-18T02:33:54.974Z,9.50
2017-09-18T02:39:26.601Z,9.60
2017-09-18T02:42:03.900Z,9.40
2017-09-18T02:44:41.397Z,9.30
2017-09-18T02:47:22.358Z,9.30
2017-09-18T02:50:01.924Z,9.40
2017-09-18T02:52:38.387Z,9.50
2017-09-18T02:55:18.283Z,9.50
2017-09-18T02:57:56.773Z,9.50
2017-09-18T03:00:32.584Z,9.50
2017-09-18T03:03:11.316Z,9.30
2017-09-18T03:05:49.324Z,9.30
2017-09-18T03:08:27.427Z,9.20
2017-09-18T03:11:03.514Z,9.00
2017-09-18T03:16:34.402Z,9.30
2017-09-18T03:19:17.038Z,9.30
2017-09-18T03:21:55.345Z,9.40
2017-09-18T03:24:33.463Z,9.50
2017-09-18T03:27:11.084Z,9.40
2017-09-18T03:29:47.661Z,9.30
2017-09-18T03:32:26.724Z,9.40
2017-09-18T03:35:05.741Z,9.50
2017-09-18T03:37:45.111Z,9.50
2017-09-18T03:40:22.901Z,9.50
2017-09-18T03:43:02.059Z,9.50
2017-09-18T03:45:37.602Z,9.50
2017-09-18T03:48:12.725Z,9.50
2017-09-18T03:50:48.801Z,9.50
2017-09-18T03:53:25.717Z,9.50
2017-09-18T03:56:03.477Z,9.50
2017-09-18T03:58:44.123Z,9.50
2017-09-18T04:01:24.695Z,9.50
2017-09-18T04:04:01.924Z,9.50
2017-09-18T04:06:45.961Z,9.50
2017-09-18T04:09:23.190Z,9.50
2017-09-18T04:12:01.072Z,9.40
2017-09-18T04:14:49.355Z,9.50
2017-09-18T04:17:29.679Z,9.50
2017-09-18T04:22:49.807Z,9.40
2017-09-18T04:25:31.266Z,9.30
2017-09-18T04:28:17.445Z,9.20
2017-09-18T04:30:55.705Z,9.20
2017-09-18T04:33:38.594Z,9.10
2017-09-18T04:36:14.382Z,9.10
2017-09-18T04:41:32.626Z,9.30
2017-09-18T04:44:12.305Z,9.30
2017-09-18T04:46:47.230Z,9.30
2017-09-18T04:49:26.012Z,9.30
2017-09-18T04:52:01.479Z,9.30
2017-09-18T04:54:40.126Z,9.30
2017-09-18T04:57:17.846Z,9.40
2017-09-18T04:59:57.918Z,9.40
2017-09-18T05:02:34.242Z,9.40
2017-09-18T05:05:10.664Z,9.30
2017-09-18T05:07:51.611Z,9.40
2017-09-18T05:10:27.348Z,9.40
2017-09-18T05:13:04.718Z,9.40
2017-09-18T05:15:38.962Z,9.30
2017-09-18T05:18:16.749Z,9.30
2017-09-18T05:20:55.425Z,9.40
2017-09-18T05:23:34.265Z,9.40
2017-09-18T05:29:05.410Z,9.40
2017-09-18T05:31:40.333Z,9.40
2017-09-18T05:34:19.609Z,9.40
2017-09-18T05:36:55.402Z,9.40
2017-09-18T05:39:32.131Z,9.30
2017-09-18T05:42:16.465Z,9.30
2017-09-18T05:44:50.665Z,9.30
2017-09-18T05:47:30.230Z,9.30
2017-09-18T05:50:08.253Z,9.30
2017-09-18T05:52:50.609Z,9.40
2017-09-18T05:55:30.925Z,9.30
2017-09-18T05:58:15.955Z,9.30
2017-09-18T06:00:52.373Z,9.30
2017-09-18T06:03:28.905Z,9.30
2017-09-18T06:06:04.910Z,9.30
2017-09-18T06:08:40.411Z,9.40
2017-09-18T06:11:22.978Z,9.40
2017-09-18T06:13:57.704Z,9.50
2017-09-18T06:16:36.276Z,9.50
2017-09-18T06:19:11.119Z,9.30
2017-09-18T06:21:45.786Z,9.30
2017-09-18T06:24:27.746Z,9.00
2017-09-18T06:27:03.688Z,8.90
2017-09-18T06:32:28.721Z,9.10
2017-09-18T06:35:13.796Z,9.10
2017-09-18T06:37:53.691Z,9.10
2017-09-18T06:40:30.133Z,9.20
2017-09-18T06:43:06.248Z,9.00
2017-09-18T06:45:41.688Z,9.30
2017-09-18T06:48:19.069Z,9.30
2017-09-18T06:50:56.699Z,9.40
2017-09-18T06:53:34.411Z,9.60
2017-09-18T06:56:11.608Z,9.70
2017-09-18T06:58:47.019Z,9.70
2017-09-18T07:01:23.355Z,9.60
2017-09-18T07:04:07.612Z,9.60
2017-09-18T07:06:44.749Z,9.70
2017-09-18T07:09:20.186Z,9.70
2017-09-18T07:11:55.694Z,10.00
2017-09-18T07:14:29.849Z,10.00
2017-09-18T07:17:09.493Z,10.20
2017-09-18T07:19:48.832Z,10.40
2017-09-18T07:22:24.641Z,10.30
2017-09-18T07:25:02.818Z,10.40
2017-09-18T07:27:38.890Z,10.40
2017-09-18T07:30:16.340Z,10.40
2017-09-18T07:32:53.822Z,10.40
2017-09-18T07:35:32.120Z,10.40
2017-09-18T07:38:07.634Z,10.40
2017-09-18T07:40:51.614Z,10.50
2017-09-18T07:43:26.846Z,10.70
2017-09-18T07:46:04.437Z,10.70
2017-09-18T07:48:44.617Z,10.70
2017-09-18T07:54:11.711Z,10.60
2017-09-18T07:56:46.454Z,10.60
2017-09-18T08:02:09.400Z,10.80
2017-09-18T08:04:44.277Z,10.90
2017-09-18T08:07:18.137Z,10.90
2017-09-18T08:09:55.555Z,10.90
2017-09-18T08:12:32.921Z,10.90
2017-09-18T08:15:12.455Z,10.80
2017-09-18T08:17:49.233Z,10.80
2017-09-18T08:20:27.186Z,10.70
2017-09-18T08:23:05.417Z,10.70
2017-09-18T08:25:41.803Z,10.90
2017-09-18T08:28:16.149Z,10.90
2017-09-18T08:30:52.241Z,11.00
2017-09-18T08:33:32.664Z,11.00
2017-09-18T08:36:11.430Z,11.00
2017-09-18T08:39:01.679Z,11.10
2017-09-18T08:41:37.223Z,11.10
2017-09-18T08:44:18.707Z,11.10
2017-09-18T08:46:54.244Z,11.20
2017-09-18T08:49:31.249Z,11.20
2017-09-18T08:52:09.420Z,11.20
2017-09-18T08:54:46.375Z,11.20
2017-09-18T08:57:36.050Z,11.40
2017-09-18T09:00:12.371Z,11.70
2017-09-18T09:02:49.214Z,11.70
2017-09-18T09:05:26.096Z,11.80
2017-09-18T09:08:04.195Z,11.90
2017-09-18T09:10:53.862Z,11.90
2017-09-18T09:13:32.846Z,12.40
2017-09-18T09:16:09.290Z,12.30
2017-09-18T09:18:47.842Z,12.50
2017-09-18T09:21:24.518Z,12.70
2017-09-18T09:24:05.749Z,12.60
2017-09-18T09:26:42.595Z,12.50
2017-09-18T09:29:21.005Z,12.40
2017-09-18T09:31:56.228Z,12.70
2017-09-18T09:34:32.051Z,12.70
2017-09-18T09:37:09.575Z,12.90
2017-09-18T09:39:50.578Z,12.80
2017-09-18T09:42:26.756Z,12.80
2017-09-18T09:45:03.945Z,12.70
2017-09-18T09:47:44.975Z,12.90
2017-09-18T09:50:20.169Z,12.90
2017-09-18T09:53:02.496Z,12.70
2017-09-18T09:55:44.780Z,12.70
2017-09-18T09:58:20.859Z,12.60
2017-09-18T10:00:57.218Z,12.60
2017-09-18T10:03:34.707Z,12.50
2017-09-18T10:06:14.716Z,12.70
2017-09-18T10:08:50.070Z,12.80
2017-09-18T10:11:31.852Z,12.80
2017-09-18T10:18:42.658Z,12.80
2017-09-18T10:24:09.764Z,12.80
2017-09-18T10:26:46.005Z,13.10
2017-09-18T10:29:23.302Z,13.40
2017-09-18T10:32:00.215Z,13.60
2017-09-18T10:34:35.753Z,13.80
2017-09-18T10:37:14.226Z,13.60
2017-09-18T10:39:50.505Z,13.70
2017-09-18T10:42:36.757Z,14.00
2017-09-18T10:45:13.383Z,14.00
2017-09-18T10:47:48.547Z,14.00
2017-09-18T10:50:25.947Z,14.10
2017-09-18T10:53:06.046Z,14.00
2017-09-18T10:55:42.934Z,14.10
2017-09-18T10:58:18.569Z,14.10
2017-09-18T11:00:56.856Z,14.00
2017-09-18T11:03:31.957Z,14.00
2017-09-18T11:06:08.959Z,14.00
2017-09-18T11:08:48.210Z,13.80
2017-09-18T11:11:38.489Z,13.70
2017-09-18T11:14:16.605Z,13.80
2017-09-18T11:16:52.773Z,13.90
2017-09-18T11:19:34.777Z,13.90
2017-09-18T11:22:10.180Z,13.80
2017-09-18T11:24:48.892Z,13.70
2017-09-18T11:27:28.249Z,13.70
2017-09-18T11:30:07.139Z,13.50
2017-09-18T11:32:44.155Z,13.70
2017-09-18T11:35:24.371Z,13.70
2017-09-18T11:38:02.510Z,13.80
2017-09-18T11:40:38.450Z,13.70
2017-09-18T11:43:20.595Z,13.70
2017-09-18T11:45:55.531Z,13.70
2017-09-18T11:48:32.092Z,13.70
2017-09-18T11:51:12.135Z,13.60
2017-09-18T11:53:50.400Z,13.60
2017-09-18T11:56:25.730Z,13.60
2017-09-18T11:59:02.948Z,13.50
2017-09-18T12:04:31.384Z,13.70
2017-09-18T12:07:06.634Z,13.70
2017-09-18T12:09:58.701Z,13.60
2017-09-18T12:12:35.365Z,13.60
2017-09-18T12:15:09.953Z,13.60
2017-09-18T12:17:44.107Z,13.60
2017-09-18T12:20:23.874Z,13.60
2017-09-18T12:22:59.690Z,13.70
2017-09-18T12:25:51.794Z,13.70
2017-09-18T12:28:32.895Z,13.50
2017-09-18T12:31:07.909Z,13.40
2017-09-18T12:33:49.570Z,13.50
2017-09-18T12:36:25.593Z,13.60
2017-09-18T12:39:00.914Z,13.70
2017-09-18T12:41:37.880Z,13.70
2017-09-18T12:44:14.188Z,13.80
2017-09-18T12:46:57.458Z,13.70
2017-09-18T12:49:34.185Z,13.60
2017-09-18T12:52:10.483Z,13.50
2017-09-18T12:54:46.512Z,13.50
2017-09-18T12:57:21.970Z,13.40
2017-09-18T12:59:56.006Z,13.40
2017-09-18T13:02:35.296Z,13.40
2017-09-18T13:05:10.456Z,13.30
2017-09-18T13:07:49.599Z,13.50
2017-09-18T13:10:26.305Z,13.70
2017-09-18T13:13:00.337Z,13.80
2017-09-18T13:15:34.918Z,13.60
2017-09-18T13:20:54.237Z,13.90
2017-09-18T13:23:29.253Z,14.00
2017-09-18T13:26:04.857Z,14.00
2017-09-18T13:28:42.069Z,14.00
2017-09-18T13:31:16.229Z,14.00
2017-09-18T13:33:54.614Z,14.00
2017-09-18T13:36:32.524Z,14.00
2017-09-18T13:39:07.511Z,13.90
2017-09-18T13:41:45.050Z,13.50
2017-09-18T13:44:22.925Z,13.50
2017-09-18T13:47:02.073Z,13.30
2017-09-18T13:49:38.778Z,13.40
2017-09-18T13:52:13.949Z,13.30
2017-09-18T13:54:52.201Z,13.10
2017-09-18T13:57:36.426Z,13.10
2017-09-18T14:00:11.782Z,13.00
2017-09-18T14:02:48.166Z,13.00
2017-09-18T14:05:26.556Z,13.00
2017-09-18T14:08:03.402Z,13.00
2017-09-18T14:10:40.630Z,12.90
2017-09-18T14:13:21.227Z,13.00
2017-09-18T14:15:56.194Z,12.90
2017-09-18T14:18:35.281Z,13.10
2017-09-18T14:21:22.497Z,13.50
2017-09-18T14:23:58.407Z,13.50
2017-09-18T14:26:42.588Z,13.40
2017-09-18T14:29:17.080Z,13.50
2017-09-18T14:31:56.840Z,13.20
2017-09-18T14:34:34.152Z,13.20
2017-09-18T14:37:11.676Z,13.20
2017-09-18T14:39:47.392Z,13.00
2017-09-18T14:42:27.212Z,13.10
2017-09-18T14:45:03.431Z,13.10
2017-09-18T14:47:40.740Z,13.30
2017-09-18T14:50:14.758Z,13.30
2017-09-18T14:52:55.242Z,13.10
2017-09-18T14:55:31.394Z,13.10
2017-09-18T14:58:09.228Z,13.10
2017-09-18T15:00:44.644Z,13.10
2017-09-18T15:03:19.612Z,13.20
2017-09-18T15:06:06.364Z,13.20
2017-09-18T15:08:44.556Z,13.10
2017-09-18T15:11:20.515Z,13.20
2017-09-18T15:13:56.503Z,13.10
2017-09-18T15:16:36.270Z,13.10
2017-09-18T15:19:11.486Z,13.00
2017-09-18T15:21:49.079Z,12.80
2017-09-18T15:24:32.372Z,13.00
2017-09-18T15:27:10.187Z,13.20
2017-09-18T15:29:45.769Z,13.20
2017-09-18T15:32:19.771Z,13.40
2017-09-18T15:34:58.344Z,13.40
2017-09-18T15:37:34.907Z,13.20
2017-09-18T15:40:11.911Z,13.40
2017-09-18T15:42:47.859Z,13.30
2017-09-18T15:45:22.004Z,13.40
2017-09-18T15:48:00.393Z,13.30
2017-09-18T15:50:36.197Z,13.10
2017-09-18T15:53:11.267Z,13.30
2017-09-18T15:55:46.781Z,13.40
2017-09-18T15:58:24.007Z,13.40
2017-09-18T16:01:12.466Z,13.40
2017-09-18T16:03:48.013Z,13.10
2017-09-18T16:06:22.090Z,13.10
2017-09-18T16:08:58.904Z,13.00
2017-09-18T16:11:34.253Z,12.90
2017-09-18T16:14:09.933Z,12.90
2017-09-18T16:16:45.689Z,13.00
2017-09-18T16:19:21.455Z,13.00
2017-09-18T16:21:57.054Z,13.00
2017-09-18T16:24:35.782Z,13.30
2017-09-18T16:27:11.338Z,13.50
2017-09-18T16:29:45.465Z,13.50
2017-09-18T16:32:20.112Z,13.60
2017-09-18T16:34:54.935Z,13.60
2017-09-18T16:37:30.073Z,13.70
2017-09-18T16:40:06.368Z,13.70
2017-09-18T16:42:42.972Z,13.70
2017-09-18T16:45:19.377Z,13.50
2017-09-18T16:47:53.534Z,13.50
2017-09-18T16:50:28.401Z,13.50
2017-09-18T16:53:09.277Z,13.50
2017-09-18T16:55:49.704Z,13.30
2017-09-18T16:58:29.560Z,13.30
2017-09-18T17:01:06.601Z,13.30
2017-09-18T17:03:43.603Z,13.30
2017-09-18T17:06:19.079Z,13.40
2017-09-18T17:08:55.480Z,13.50
2017-09-18T17:11:31.631Z,13.30
2017-09-18T17:14:07.516Z,12.90
2017-09-18T17:16:47.011Z,12.80
2017-09-18T17:19:23.441Z,12.80
2017-09-18T17:21:58.970Z,12.70
2017-09-18T17:24:35.260Z,12.70
2017-09-18T17:27:13.296Z,12.80
2017-09-18T17:29:50.555Z,13.10
2017-09-18T17:32:24.724Z,13.00
2017-09-18T17:35:00.537Z,13.10
2017-09-18T17:37:37.116Z,13.10
2017-09-18T17:40:12.949Z,13.10
2017-09-18T17:42:49.754Z,13.10
2017-09-18T17:45:23.628Z,13.10
2017-09-18T17:47:57.452Z,13.00
2017-09-18T17:50:36.595Z,12.80
2017-09-18T17:53:14.043Z,12.70
2017-09-18T17:55:48.059Z,12.70
2017-09-18T17:58:26.512Z,12.80
2017-09-18T18:01:01.874Z,12.80
2017-09-18T18:03:36.016Z,12.80
2017-09-18T18:06:12.480Z,12.80
2017-09-18T18:08:50.035Z,12.80
2017-09-18T18:11:24.743Z,12.80
2017-09-18T18:18:18.033Z,12.80
2017-09-18T18:20:54.792Z,12.70
2017-09-18T18:23:29.711Z,12.70
2017-09-18T18:26:04.541Z,12.60
2017-09-18T18:28:42.050Z,12.50
2017-09-18T18:31:16.840Z,12.50
2017-09-18T18:33:50.826Z,12.50
2017-09-18T18:36:27.797Z,12.50
2017-09-18T18:39:02.143Z,12.50
2017-09-18T18:41:39.719Z,12.50
2017-09-18T18:44:16.633Z,12.50
2017-09-18T18:46:51.323Z,12.40
2017-09-18T18:49:26.393Z,12.50
2017-09-18T18:52:00.363Z,12.40
2017-09-18T18:54:35.405Z,12.40
2017-09-18T18:57:10.477Z,12.30
2017-09-18T18:59:46.061Z,12.30
2017-09-18T19:02:23.983Z,12.40
2017-09-18T19:04:59.557Z,12.30
2017-09-18T19:07:34.144Z,12.30
2017-09-18T19:10:08.270Z,12.30
2017-09-18T19:12:43.057Z,12.30
2017-09-18T19:15:18.338Z,12.30
2017-09-18T19:17:53.914Z,12.30
2017-09-18T19:20:30.789Z,12.20
2017-09-18T19:23:12.500Z,12.20
2017-09-18T19:25:48.846Z,12.20
2017-09-18T19:28:23.411Z,12.20
2017-09-18T19:30:58.202Z,12.20
2017-09-18T19:33:32.858Z,12.20
2017-09-18T19:36:08.074Z,12.20
2017-09-18T19:38:42.839Z,12.20
2017-09-18T19:41:16.905Z,12.10
2017-09-18T19:43:50.868Z,12.10
2017-09-18T19:46:28.225Z,12.00
2017-09-18T19:49:06.477Z,12.00
2017-09-18T19:51:40.724Z,12.00
2017-09-18T19:54:15.968Z,12.00
2017-09-18T19:56:51.749Z,12.00
2017-09-18T19:59:25.649Z,11.90
2017-09-18T20:02:00.179Z,11.80
2017-09-18T20:04:38.128Z,11.70
2017-09-18T20:07:13.340Z,11.60
2017-09-18T20:09:47.203Z,11.50
2017-09-18T20:12:24.476Z,11.60
2017-09-18T20:14:59.638Z,11.70
2017-09-18T20:17:37.246Z,11.70
2017-09-18T20:20:18.088Z,11.30
2017-09-18T20:22:58.231Z,11.30
2017-09-18T20:25:34.832Z,11.40
2017-09-18T20:28:09.573Z,11.40
2017-09-18T20:30:47.434Z,11.60
2017-09-18T20:33:27.514Z,11.60
2017-09-18T20:36:02.406Z,11.60
2017-09-18T20:38:42.080Z,11.60
2017-09-18T20:41:16.707Z,11.60
2017-09-18T20:43:55.951Z,11.60
2017-09-18T20:46:34.118Z,11.60
2017-09-18T20:49:08.306Z,11.60
2017-09-18T20:51:42.379Z,11.60
2017-09-18T20:54:20.573Z,11.50
2017-09-18T20:56:56.472Z,11.50
2017-09-18T20:59:32.699Z,11.50
2017-09-18T21:02:10.663Z,11.50
2017-09-18T21:04:47.968Z,11.50
2017-09-18T21:07:23.708Z,11.50
2017-09-18T21:09:58.132Z,11.40
2017-09-18T21:12:33.357Z,11.30
2017-09-18T21:15:08.334Z,11.40
2017-09-18T21:17:43.011Z,11.40
2017-09-18T21:20:19.188Z,11.40
2017-09-18T21:22:55.283Z,11.40
2017-09-18T21:25:30.609Z,11.40
2017-09-18T21:28:05.669Z,11.40
2017-09-18T21:30:42.417Z,11.30
2017-09-18T21:33:20.961Z,11.30
2017-09-18T21:35:58.849Z,11.30
2017-09-18T21:38:35.286Z,11.30
2017-09-18T21:41:09.919Z,11.30
2017-09-18T21:43:47.265Z,11.30
2017-09-18T21:46:28.531Z,11.30
2017-09-18T21:49:03.503Z,11.30
2017-09-18T21:51:39.099Z,11.30
2017-09-18T21:54:14.383Z,11.30
2017-09-18T21:56:51.437Z,11.20
2017-09-18T21:59:27.935Z,11.30
2017-09-18T22:02:05.276Z,11.20
2017-09-18T22:04:39.721Z,11.20
2017-09-18T22:07:16.165Z,11.20
2017-09-18T22:09:52.425Z,11.20
2017-09-18T22:12:30.587Z,11.20
2017-09-18T22:15:06.033Z,11.20
2017-09-18T22:17:41.849Z,11.20
2017-09-18T22:20:20.037Z,11.20
2017-09-18T22:22:54.502Z,11.20
2017-09-18T22:25:28.252Z,11.20
2017-09-18T22:28:02.575Z,11.10
2017-09-18T22:30:36.895Z,11.10
2017-09-18T22:33:14.396Z,10.80
2017-09-18T22:35:50.861Z,10.80
2017-09-18T22:38:25.545Z,11.00
2017-09-18T22:41:01.333Z,11.00
2017-09-18T22:43:37.814Z,11.10
2017-09-18T22:46:12.257Z,11.10
2017-09-18T22:48:49.215Z,11.10
2017-09-18T22:51:24.778Z,11.10
2017-09-18T22:53:59.181Z,10.90
2017-09-18T22:56:34.106Z,10.90
2017-09-18T22:59:09.741Z,10.50
2017-09-18T23:01:44.425Z,10.50
2017-09-18T23:04:18.250Z,10.70
2017-09-18T23:06:53.800Z,10.90
2017-09-18T23:09:28.686Z,10.80
2017-09-18T23:12:03.517Z,10.90
2017-09-18T23:14:38.221Z,10.90
2017-09-18T23:17:13.441Z,10.80
2017-09-18T23:19:48.163Z,10.80
2017-09-18T23:22:24.154Z,10.80
2017-09-18T23:24:59.181Z,10.90
2017-09-18T23:27:34.116Z,10.90
2017-09-18T23:30:07.906Z,10.80
2017-09-18T23:32:44.369Z,10.80
2017-09-18T23:35:19.674Z,10.90
2017-09-18T23:37:56.505Z,10.90
2017-09-18T23:40:30.817Z,10.90
2017-09-18T23:43:05.080Z,10.80
2017-09-18T23:45:39.130Z,10.80
2017-09-18T23:48:15.739Z,10.70
2017-09-18T23:50:50.543Z,10.70
2017-09-18T23:53:26.945Z,10.80
2017-09-18T23:56:03.643Z,10.80
2017-09-18T23:58:38.881Z,10.80
